Time;durP1;ratioP1;P1;durP2;ratioP2;P2;SDS_P1;SDS_P2;PMS_P1;PMS_P2;Temp;Humidity;BMP_temperature;BMP_pressure;BME280_temperature;BME280_humidity;BME280_pressure;Samples;Min_cycle;Max_cycle;Signal;HPM_P1;HPM_P2
2023/07/01 00:01:34;;;;;;;;;;;17.00;99.90;;;;;;5007212;28;19975;-62
2023/07/01 00:04:06;;;;;;;;;;;16.90;99.90;;;;;;5022970;28;19929;-62
2023/07/01 00:06:41;;;;;;;;;;;16.90;99.90;;;;;;5022491;28;19929;-62
2023/07/01 00:09:13;;;;;;;;;;;17.00;99.90;;;;;;5024830;28;20377;-62
2023/07/01 00:11:44;;;;;;;;;;;16.90;99.90;;;;;;5023410;28;19926;-62
2023/07/01 00:14:16;;;;;;;;;;;17.00;99.90;;;;;;5025379;28;20308;-63
2023/07/01 00:16:48;;;;;;;;;;;16.90;99.90;;;;;;5026502;28;20378;-62
2023/07/01 00:19:20;;;;;;;;;;;17.00;99.90;;;;;;5027091;28;20393;-62
2023/07/01 00:21:51;;;;;;;;;;;16.90;99.90;;;;;;5023183;28;19926;-63
2023/07/01 00:24:23;;;;;;;;;;;17.00;99.90;;;;;;5001903;28;19979;-63
2023/07/01 00:26:55;;;;;;;;;;;17.00;99.90;;;;;;5026099;28;19925;-62
2023/07/01 00:29:27;;;;;;;;;;;16.90;99.90;;;;;;5027041;28;19929;-63
2023/07/01 00:31:59;;;;;;;;;;;17.00;99.90;;;;;;5028416;28;19975;-62
2023/07/01 00:34:30;;;;;;;;;;;16.90;99.90;;;;;;5028044;28;19930;-63
2023/07/01 00:37:02;;;;;;;;;;;16.90;99.90;;;;;;5029198;28;19948;-63
2023/07/01 00:39:34;;;;;;;;;;;16.90;99.90;;;;;;5024874;28;20016;-62
2023/07/01 00:42:06;;;;;;;;;;;16.90;99.90;;;;;;5025838;28;19935;-63
2023/07/01 00:44:37;;;;;;;;;;;17.00;99.90;;;;;;5025619;28;19936;-62
2023/07/01 00:47:09;;;;;;;;;;;17.00;99.90;;;;;;5023410;28;19948;-63
2023/07/01 00:49:37;;;;;;;;;;;16.90;99.90;;;;;;5023983;28;19964;-63
2023/07/01 00:52:09;;;;;;;;;;;17.00;99.90;;;;;;5025506;28;19960;-63
2023/07/01 00:54:41;;;;;;;;;;;17.00;99.90;;;;;;5026575;28;19929;-63
2023/07/01 00:57:13;;;;;;;;;;;17.10;99.90;;;;;;5019338;28;20518;-63
2023/07/01 00:59:40;;;;;;;;;;;17.10;99.90;;;;;;5023003;28;20437;-63
2023/07/01 01:02:23;;;;;;;;;;;17.20;99.90;;;;;;5027823;28;20020;-63
2023/07/01 01:05:10;;;;;;;;;;;17.20;99.90;;;;;;5021112;28;20335;-62
2023/07/01 01:07:53;;;;;;;;;;;17.10;99.90;;;;;;5022828;28;19929;-63
2023/07/01 01:10:25;;;;;;;;;;;17.10;99.90;;;;;;5028176;28;19925;-63
2023/07/01 01:12:58;;;;;;;;;;;17.00;99.90;;;;;;5021066;28;19956;-63
2023/07/01 01:15:30;;;;;;;;;;;17.00;99.90;;;;;;5025457;28;20397;-63
2023/07/01 01:17:59;;;;;;;;;;;17.00;99.90;;;;;;5020135;28;19953;-62
2023/07/01 01:20:33;;;;;;;;;;;16.90;99.90;;;;;;5020309;28;20319;-62
2023/07/01 01:23:13;;;;;;;;;;;16.80;99.90;;;;;;5017177;28;19931;-63
2023/07/01 01:25:52;;;;;;;;;;;16.80;99.90;;;;;;5016241;28;20378;-62
2023/07/01 01:28:24;;;;;;;;;;;16.80;99.90;;;;;;5019794;28;19925;-63
2023/07/01 01:30:51;;;;;;;;;;;16.80;99.90;;;;;;5026288;28;19930;-63
2023/07/01 01:33:18;;;;;;;;;;;16.80;99.90;;;;;;5027326;28;19925;-62
2023/07/01 01:35:50;;;;;;;;;;;16.80;99.90;;;;;;5029771;28;20393;-63
2023/07/01 01:38:24;;;;;;;;;;;16.90;99.90;;;;;;5028004;28;19930;-62
2023/07/01 01:40:58;;;;;;;;;;;16.90;99.90;;;;;;5020793;28;19925;-63
2023/07/01 01:43:51;;;;;;;;;;;16.90;99.90;;;;;;5037382;28;20016;-63
2023/07/01 01:46:19;;;;;;;;;;;16.90;99.90;;;;;;5007097;28;19964;-63
2023/07/01 01:48:46;;;;;;;;;;;16.90;99.90;;;;;;5027491;28;19925;-63
2023/07/01 01:51:19;;;;;;;;;;;17.00;99.90;;;;;;5021543;28;19925;-63
2023/07/01 01:53:51;;;;;;;;;;;17.00;99.90;;;;;;5026961;28;19953;-63
2023/07/01 01:56:24;;;;;;;;;;;17.00;99.90;;;;;;5028487;28;19926;-63
2023/07/01 01:58:56;;;;;;;;;;;17.10;99.90;;;;;;5039253;28;19929;-63
2023/07/01 02:01:28;;;;;;;;;;;17.10;99.90;;;;;;5023144;28;19925;-63
2023/07/01 02:04:00;;;;;;;;;;;17.10;99.90;;;;;;5028471;28;19932;-63
2023/07/01 02:06:34;;;;;;;;;;;17.10;99.90;;;;;;5029881;28;19934;-63
2023/07/01 02:09:05;;;;;;;;;;;17.00;99.90;;;;;;5022317;28;19939;-63
2023/07/01 02:11:33;;;;;;;;;;;17.00;99.90;;;;;;5029584;28;20347;-63
2023/07/01 02:14:04;;;;;;;;;;;17.00;99.90;;;;;;5020957;28;19930;-63
2023/07/01 02:16:36;;;;;;;;;;;17.00;99.90;;;;;;5029523;28;19980;-63
2023/07/01 02:19:06;;;;;;;;;;;17.00;99.90;;;;;;5030545;28;20028;-62
2023/07/01 02:21:38;;;;;;;;;;;17.00;99.90;;;;;;5029541;28;19929;-63
2023/07/01 02:24:09;;;;;;;;;;;17.10;99.90;;;;;;5042839;28;20296;-63
2023/07/01 02:26:41;;;;;;;;;;;17.10;99.90;;;;;;5036900;28;19926;-63
2023/07/01 02:29:13;;;;;;;;;;;17.10;99.90;;;;;;5026698;28;20011;-63
2023/07/01 02:31:45;;;;;;;;;;;17.10;99.90;;;;;;5029953;28;19935;-64
2023/07/01 02:34:23;;;;;;;;;;;17.00;99.90;;;;;;5023832;28;19934;-63
2023/07/01 02:36:55;;;;;;;;;;;17.00;99.90;;;;;;5028589;28;20792;-63
2023/07/01 02:39:23;;;;;;;;;;;16.90;99.90;;;;;;5023036;28;19940;-63
2023/07/01 02:41:54;;;;;;;;;;;16.90;99.90;;;;;;5022759;28;19929;-63
2023/07/01 02:44:26;;;;;;;;;;;16.80;99.90;;;;;;5022265;28;20336;-63
2023/07/01 02:46:59;;;;;;;;;;;16.80;99.90;;;;;;5030017;28;19937;-63
2023/07/01 02:49:30;;;;;;;;;;;16.80;99.90;;;;;;5017194;28;20286;-63
2023/07/01 02:52:02;;;;;;;;;;;16.80;99.90;;;;;;5020484;28;19933;-63
2023/07/01 02:54:29;;;;;;;;;;;16.80;99.90;;;;;;5022127;28;19968;-63
2023/07/01 02:57:01;;;;;;;;;;;16.90;99.90;;;;;;5020653;28;20516;-63
2023/07/01 02:59:28;;;;;;;;;;;16.90;99.90;;;;;;5023105;28;20349;-63
2023/07/01 03:02:00;;;;;;;;;;;16.80;99.90;;;;;;5020271;28;20699;-63
2023/07/01 03:04:35;;;;;;;;;;;16.70;99.90;;;;;;5018525;28;19933;-63
2023/07/01 03:07:07;;;;;;;;;;;16.70;99.90;;;;;;5028284;28;19925;-63
2023/07/01 03:09:38;;;;;;;;;;;16.60;99.90;;;;;;5027621;28;20020;-63
2023/07/01 03:12:10;;;;;;;;;;;16.60;99.90;;;;;;5011524;28;19929;-63
2023/07/01 03:14:43;;;;;;;;;;;16.60;99.90;;;;;;5028718;28;19926;-63
2023/07/01 03:17:14;;;;;;;;;;;16.50;99.90;;;;;;5013082;28;20012;-63
2023/07/01 03:19:46;;;;;;;;;;;16.50;99.90;;;;;;5027379;28;19926;-63
2023/07/01 03:22:13;;;;;;;;;;;16.50;99.90;;;;;;5011727;28;19934;-63
2023/07/01 03:24:45;;;;;;;;;;;16.50;99.90;;;;;;5027174;28;19948;-63
2023/07/01 03:27:16;;;;;;;;;;;16.40;99.90;;;;;;5027572;28;20412;-63
2023/07/01 03:29:48;;;;;;;;;;;16.40;99.90;;;;;;5029558;28;20019;-63
2023/07/01 03:32:20;;;;;;;;;;;16.40;99.90;;;;;;5022976;28;20368;-63
2023/07/01 03:34:51;;;;;;;;;;;16.30;99.90;;;;;;5028288;28;20409;-63
2023/07/01 03:37:23;;;;;;;;;;;16.40;99.90;;;;;;5029935;28;20628;-63
2023/07/01 03:39:55;;;;;;;;;;;16.30;99.90;;;;;;5024149;28;19960;-63
2023/07/01 03:42:26;;;;;;;;;;;16.30;99.90;;;;;;5029125;28;19971;-63
2023/07/01 03:44:58;;;;;;;;;;;16.30;99.90;;;;;;5020565;28;19932;-62
2023/07/01 03:47:30;;;;;;;;;;;16.30;99.90;;;;;;5028605;28;19926;-63
2023/07/01 03:50:01;;;;;;;;;;;16.30;99.90;;;;;;5029368;28;19993;-62
2023/07/01 03:52:34;;;;;;;;;;;16.30;99.90;;;;;;5020392;28;19933;-63
2023/07/01 03:55:06;;;;;;;;;;;16.30;99.90;;;;;;5023423;28;19933;-63
2023/07/01 03:57:38;;;;;;;;;;;16.30;99.90;;;;;;5024964;28;19969;-63
2023/07/01 04:00:17;;;;;;;;;;;16.30;99.90;;;;;;5024561;28;19933;-62
2023/07/01 04:02:50;;;;;;;;;;;16.30;99.90;;;;;;5021046;28;19980;-63
2023/07/01 04:05:22;;;;;;;;;;;16.30;99.90;;;;;;5021762;28;19931;-63
2023/07/01 04:07:49;;;;;;;;;;;16.20;99.90;;;;;;5023841;28;19968;-63
2023/07/01 04:10:21;;;;;;;;;;;16.20;99.90;;;;;;5025331;28;19935;-62
2023/07/01 04:12:53;;;;;;;;;;;16.10;99.90;;;;;;5022299;28;20301;-63
2023/07/01 04:15:25;;;;;;;;;;;16.10;99.90;;;;;;5023147;28;20287;-62
2023/07/01 04:17:56;;;;;;;;;;;16.10;99.90;;;;;;5022549;28;19931;-63
2023/07/01 04:20:28;;;;;;;;;;;16.10;99.90;;;;;;5021982;28;19932;-62
2023/07/01 04:23:00;;;;;;;;;;;16.00;99.90;;;;;;5023725;28;19932;-62
2023/07/01 04:25:32;;;;;;;;;;;16.00;99.90;;;;;;5024372;28;19925;-62
2023/07/01 04:28:05;;;;;;;;;;;16.00;99.90;;;;;;5023562;28;19933;-62
2023/07/01 04:30:36;;;;;;;;;;;16.10;99.90;;;;;;5023281;28;19932;-62
2023/07/01 04:33:08;;;;;;;;;;;16.10;99.90;;;;;;5024354;28;19933;-62
2023/07/01 04:35:40;;;;;;;;;;;16.10;99.90;;;;;;5020853;28;19932;-62
2023/07/01 04:38:12;;;;;;;;;;;16.10;99.90;;;;;;5022555;28;21092;-62
2023/07/01 04:40:44;;;;;;;;;;;16.10;99.90;;;;;;5023791;28;19964;-62
2023/07/01 04:43:16;;;;;;;;;;;16.10;99.90;;;;;;5024740;28;19929;-62
2023/07/01 04:45:48;;;;;;;;;;;16.10;99.90;;;;;;5007008;28;19929;-62
2023/07/01 04:48:20;;;;;;;;;;;16.10;99.90;;;;;;5028047;28;19925;-62
2023/07/01 04:50:52;;;;;;;;;;;16.10;99.90;;;;;;5022862;28;19953;-62
2023/07/01 04:53:24;;;;;;;;;;;16.20;99.90;;;;;;5022495;28;19932;-62
2023/07/01 04:55:56;;;;;;;;;;;16.20;99.90;;;;;;5022184;28;20408;-62
2023/07/01 04:58:27;;;;;;;;;;;16.20;99.90;;;;;;5022757;28;20325;-63
2023/07/01 05:00:59;;;;;;;;;;;16.20;99.90;;;;;;5024343;28;19947;-62
2023/07/01 05:03:31;;;;;;;;;;;16.30;99.90;;;;;;5024453;28;20013;-62
2023/07/01 05:06:04;;;;;;;;;;;16.30;99.90;;;;;;5027979;28;19926;-62
2023/07/01 05:08:35;;;;;;;;;;;16.30;99.90;;;;;;5025459;28;19935;-62
2023/07/01 05:11:07;;;;;;;;;;;16.30;99.90;;;;;;5031245;28;19960;-62
2023/07/01 05:13:39;;;;;;;;;;;16.30;99.90;;;;;;5025935;28;19952;-62
2023/07/01 05:16:11;;;;;;;;;;;16.30;99.90;;;;;;5027500;28;19926;-62
2023/07/01 05:18:42;;;;;;;;;;;16.30;99.90;;;;;;5025698;28;20397;-63
2023/07/01 05:21:14;;;;;;;;;;;16.30;99.90;;;;;;5025637;28;19933;-62
2023/07/01 05:23:46;;;;;;;;;;;16.30;99.90;;;;;;5024041;28;19926;-62
2023/07/01 05:26:17;;;;;;;;;;;16.30;99.90;;;;;;5029423;28;19925;-62
2023/07/01 05:28:44;;;;;;;;;;;16.40;99.90;;;;;;5025217;28;19929;-62
2023/07/01 05:31:16;;;;;;;;;;;16.40;99.90;;;;;;5028774;28;19925;-62
2023/07/01 05:33:48;;;;;;;;;;;16.50;99.90;;;;;;5026853;28;19929;-62
2023/07/01 05:36:19;;;;;;;;;;;16.50;99.90;;;;;;5030951;28;19967;-62
2023/07/01 05:38:51;;;;;;;;;;;16.60;99.90;;;;;;5024890;28;19933;-62
2023/07/01 05:41:23;;;;;;;;;;;16.60;99.90;;;;;;5025673;28;19952;-62
2023/07/01 05:43:55;;;;;;;;;;;16.60;99.90;;;;;;5028754;28;20305;-62
2023/07/01 05:46:27;;;;;;;;;;;16.70;99.90;;;;;;5024306;28;19936;-62
2023/07/01 05:48:53;;;;;;;;;;;16.80;99.90;;;;;;5029225;28;19929;-62
2023/07/01 05:51:25;;;;;;;;;;;16.80;99.90;;;;;;5027575;28;19936;-62
2023/07/01 05:53:57;;;;;;;;;;;16.80;99.90;;;;;;5024435;28;20405;-62
2023/07/01 05:56:31;;;;;;;;;;;16.70;99.90;;;;;;5025662;28;19925;-62
2023/07/01 05:59:03;;;;;;;;;;;16.80;99.90;;;;;;5026839;28;19929;-62
2023/07/01 06:01:35;;;;;;;;;;;16.80;99.90;;;;;;5026561;28;19939;-63
2023/07/01 06:04:09;;;;;;;;;;;16.90;99.90;;;;;;5022782;28;20132;-62
2023/07/01 06:06:41;;;;;;;;;;;17.00;99.90;;;;;;5024813;28;19925;-62
2023/07/01 06:09:14;;;;;;;;;;;17.00;99.90;;;;;;5028061;28;19932;-63
2023/07/01 06:11:46;;;;;;;;;;;17.00;99.90;;;;;;5030481;28;19940;-64
2023/07/01 06:14:15;;;;;;;;;;;17.00;99.90;;;;;;5030021;28;19925;-63
2023/07/01 06:16:41;;;;;;;;;;;17.00;99.90;;;;;;5028018;28;19932;-63
2023/07/01 06:19:13;;;;;;;;;;;17.00;99.90;;;;;;5029241;28;20008;-62
2023/07/01 06:21:46;;;;;;;;;;;17.00;99.90;;;;;;5027260;28;19940;-63
2023/07/01 06:24:18;;;;;;;;;;;17.00;99.90;;;;;;5027745;28;19940;-63
2023/07/01 06:26:44;;;;;;;;;;;17.10;99.90;;;;;;5011912;28;19957;-63
2023/07/01 06:29:16;;;;;;;;;;;17.10;99.90;;;;;;5029048;28;19932;-63
2023/07/01 06:31:42;;;;;;;;;;;17.20;99.90;;;;;;5026265;28;19935;-63
2023/07/01 06:34:15;;;;;;;;;;;17.30;99.90;;;;;;5028754;28;19933;-63
2023/07/01 06:36:47;;;;;;;;;;;17.30;99.90;;;;;;5027898;28;20027;-63
2023/07/01 06:39:19;;;;;;;;;;;17.30;99.90;;;;;;5028341;28;20023;-63
2023/07/01 06:41:51;;;;;;;;;;;17.40;99.90;;;;;;5030218;28;19929;-63
2023/07/01 06:44:22;;;;;;;;;;;17.50;99.90;;;;;;5027220;28;19954;-63
2023/07/01 06:46:54;;;;;;;;;;;17.60;99.90;;;;;;5026213;28;20037;-63
2023/07/01 06:49:26;;;;;;;;;;;17.70;99.90;;;;;;5026279;28;19928;-63
2023/07/01 06:51:58;;;;;;;;;;;17.90;99.90;;;;;;5028993;28;19935;-62
2023/07/01 06:54:25;;;;;;;;;;;18.00;99.90;;;;;;5030694;28;19933;-63
2023/07/01 06:56:56;;;;;;;;;;;18.10;99.90;;;;;;5025710;28;19945;-61
2023/07/01 06:59:28;;;;;;;;;;;18.10;99.90;;;;;;5025049;28;19932;-62
2023/07/01 07:02:00;;;;;;;;;;;18.20;99.90;;;;;;5025848;28;20469;-62
2023/07/01 07:04:31;;;;;;;;;;;18.40;99.90;;;;;;5030246;28;19924;-62
2023/07/01 07:07:03;;;;;;;;;;;18.40;99.90;;;;;;5028153;28;19955;-62
2023/07/01 07:09:35;;;;;;;;;;;18.40;99.90;;;;;;5027377;28;19929;-62
2023/07/01 07:12:07;;;;;;;;;;;18.50;99.90;;;;;;5027939;28;20023;-61
2023/07/01 07:14:39;;;;;;;;;;;18.50;99.90;;;;;;5025800;28;20405;-62
2023/07/01 07:17:05;;;;;;;;;;;18.50;99.90;;;;;;5024522;28;19931;-62
2023/07/01 07:19:33;;;;;;;;;;;18.40;99.90;;;;;;5033856;28;19965;-63
2023/07/01 07:22:05;;;;;;;;;;;18.30;99.90;;;;;;5029880;28;19925;-63
2023/07/01 07:24:38;;;;;;;;;;;18.40;99.90;;;;;;5026757;28;19932;-62
2023/07/01 07:27:09;;;;;;;;;;;18.40;99.90;;;;;;5026730;28;19931;-63
2023/07/01 07:29:41;;;;;;;;;;;18.50;99.90;;;;;;5023618;28;19925;-63
2023/07/01 07:32:13;;;;;;;;;;;18.60;99.90;;;;;;5024634;28;20385;-62
2023/07/01 07:34:45;;;;;;;;;;;18.70;99.90;;;;;;5024411;28;19925;-62
2023/07/01 07:37:17;;;;;;;;;;;18.80;99.90;;;;;;5026311;28;19944;-62
2023/07/01 07:39:44;;;;;;;;;;;18.70;99.90;;;;;;5025304;28;19925;-62
2023/07/01 07:42:15;;;;;;;;;;;18.60;99.90;;;;;;5019461;28;19935;-62
2023/07/01 07:44:47;;;;;;;;;;;18.70;99.90;;;;;;5023655;28;20137;-62
2023/07/01 07:47:20;;;;;;;;;;;18.90;99.90;;;;;;5020902;28;19957;-62
2023/07/01 07:49:51;;;;;;;;;;;19.00;99.90;;;;;;5023875;28;19931;-62
2023/07/01 07:52:23;;;;;;;;;;;19.00;99.90;;;;;;5024858;28;19932;-62
2023/07/01 07:54:55;;;;;;;;;;;19.10;99.90;;;;;;5022423;28;20013;-62
2023/07/01 07:57:27;;;;;;;;;;;19.20;99.90;;;;;;5028223;28;19925;-62
2023/07/01 07:59:59;;;;;;;;;;;19.20;99.90;;;;;;5019934;28;19925;-62
2023/07/01 08:02:42;;;;;;;;;;;19.40;99.90;;;;;;5026597;28;19936;-62
2023/07/01 08:05:08;;;;;;;;;;;19.50;99.90;;;;;;5022746;28;20474;-62
2023/07/01 08:07:40;;;;;;;;;;;19.60;99.90;;;;;;5026987;28;20366;-62
2023/07/01 08:10:12;;;;;;;;;;;19.60;99.90;;;;;;5028936;28;19936;-62
2023/07/01 08:12:44;;;;;;;;;;;19.60;99.90;;;;;;5017218;28;19963;-62
2023/07/01 08:15:17;;;;;;;;;;;19.60;99.90;;;;;;5023072;28;20417;-62
2023/07/01 08:17:49;;;;;;;;;;;19.70;99.90;;;;;;5013508;28;20300;-61
2023/07/01 08:20:22;;;;;;;;;;;19.70;99.90;;;;;;5017928;28;19957;-62
2023/07/01 08:22:54;;;;;;;;;;;19.60;99.90;;;;;;5017989;28;20409;-62
2023/07/01 08:25:25;;;;;;;;;;;19.60;99.90;;;;;;5017015;28;19929;-61
2023/07/01 08:28:00;;;;;;;;;;;19.60;99.90;;;;;;5016738;28;19936;-62
2023/07/01 08:30:32;;;;;;;;;;;19.60;99.90;;;;;;5022455;28;19933;-62
2023/07/01 08:33:04;;;;;;;;;;;19.80;99.90;;;;;;5011116;28;20304;-61
2023/07/01 08:35:36;;;;;;;;;;;20.10;99.90;;;;;;5019438;28;19933;-62
2023/07/01 08:38:08;;;;;;;;;;;20.00;99.90;;;;;;5022604;28;20401;-62
2023/07/01 08:40:39;;;;;;;;;;;19.90;99.90;;;;;;5025413;28;19933;-62
2023/07/01 08:43:11;;;;;;;;;;;20.00;99.90;;;;;;5026407;28;19925;-61
2023/07/01 08:45:43;;;;;;;;;;;20.10;99.90;;;;;;5021051;28;19926;-62
2023/07/01 08:48:16;;;;;;;;;;;20.30;99.90;;;;;;5024942;28;19929;-62
2023/07/01 08:50:56;;;;;;;;;;;20.50;99.90;;;;;;5023523;28;19925;-62
2023/07/01 08:53:28;;;;;;;;;;;20.70;99.90;;;;;;5026475;28;19931;-62
2023/07/01 08:56:00;;;;;;;;;;;20.70;99.90;;;;;;5029396;28;19925;-62
2023/07/01 08:58:28;;;;;;;;;;;20.60;99.90;;;;;;5029865;28;19925;-62
2023/07/01 09:01:00;;;;;;;;;;;20.40;99.90;;;;;;5028626;28;19933;-61
2023/07/01 09:03:36;;;;;;;;;;;20.50;99.90;;;;;;5016770;28;20299;-62
2023/07/01 09:06:08;;;;;;;;;;;20.60;99.90;;;;;;5028824;28;19930;-62
2023/07/01 09:08:39;;;;;;;;;;;20.60;99.90;;;;;;5027553;28;20024;-62
2023/07/01 09:11:14;;;;;;;;;;;20.70;99.90;;;;;;5030727;28;20310;-61
2023/07/01 09:13:45;;;;;;;;;;;20.80;99.90;;;;;;5027148;28;20028;-61
2023/07/01 09:16:33;;;;;;;;;;;20.70;99.90;;;;;;5030937;28;19932;-62
2023/07/01 09:19:06;;;;;;;;;;;20.70;99.90;;;;;;5027381;28;19925;-61
2023/07/01 09:21:38;;;;;;;;;;;20.80;99.90;;;;;;5025922;28;19929;-62
2023/07/01 09:24:12;;;;;;;;;;;20.80;99.90;;;;;;5023838;28;19932;-62
2023/07/01 09:26:51;;;;;;;;;;;20.80;99.90;;;;;;5027491;28;19937;-61
2023/07/01 09:29:21;;;;;;;;;;;20.60;99.90;;;;;;5027056;28;20476;-62
2023/07/01 09:31:53;;;;;;;;;;;20.80;99.90;;;;;;5030493;28;19932;-61
2023/07/01 09:34:25;;;;;;;;;;;20.80;99.90;;;;;;5026939;28;19925;-61
2023/07/01 09:37:14;;;;;;;;;;;20.70;99.90;;;;;;5022637;28;19964;-62
2023/07/01 09:39:46;;;;;;;;;;;20.70;99.90;;;;;;5025963;28;19937;-62
2023/07/01 09:42:21;;;;;;;;;;;20.80;99.90;;;;;;5028212;28;20407;-61
2023/07/01 09:45:11;;;;;;;;;;;20.90;99.90;;;;;;5023118;28;19968;-62
2023/07/01 09:47:43;;;;;;;;;;;21.00;99.90;;;;;;5022144;28;19979;-62
2023/07/01 09:50:29;;;;;;;;;;;21.30;99.90;;;;;;5025143;28;19930;-62
2023/07/01 09:53:00;;;;;;;;;;;21.30;99.90;;;;;;5033247;28;19940;-62
2023/07/01 09:55:32;;;;;;;;;;;21.20;99.90;;;;;;5029513;28;20397;-62
2023/07/01 09:58:04;;;;;;;;;;;21.40;99.90;;;;;;5031445;28;20008;-62
2023/07/01 10:00:38;;;;;;;;;;;21.70;99.90;;;;;;5030805;28;19973;-62
2023/07/01 10:03:09;;;;;;;;;;;21.60;99.90;;;;;;5031023;28;20056;-62
2023/07/01 10:05:43;;;;;;;;;;;21.60;99.90;;;;;;5026244;28;20460;-61
2023/07/01 10:08:15;;;;;;;;;;;21.40;99.90;;;;;;5031813;28;19951;-62
2023/07/01 10:10:59;;;;;;;;;;;21.30;99.90;;;;;;5025037;28;20016;-61
2023/07/01 10:13:32;;;;;;;;;;;21.40;99.90;;;;;;5031775;28;20425;-61
2023/07/01 10:16:04;;;;;;;;;;;21.50;99.90;;;;;;5028092;28;20449;-62
2023/07/01 10:18:36;;;;;;;;;;;21.50;99.90;;;;;;5021559;28;20019;-62
2023/07/01 10:21:23;;;;;;;;;;;21.40;99.90;;;;;;5020990;28;19953;-61
2023/07/01 10:23:59;;;;;;;;;;;21.30;99.90;;;;;;5028581;28;19937;-62
2023/07/01 10:26:31;;;;;;;;;;;21.20;99.90;;;;;;5031605;28;20357;-61
2023/07/01 10:29:22;;;;;;;;;;;21.20;99.90;;;;;;5024923;28;20389;-61
2023/07/01 10:32:09;;;;;;;;;;;21.30;99.90;;;;;;5027866;28;20401;-61
2023/07/01 10:35:03;;;;;;;;;;;21.60;99.90;;;;;;5024697;28;19964;-61
2023/07/01 10:37:35;;;;;;;;;;;21.90;99.90;;;;;;5024593;28;20439;-61
2023/07/01 10:40:26;;;;;;;;;;;21.80;99.90;;;;;;5019589;28;19925;-62
2023/07/01 10:43:13;;;;;;;;;;;22.00;99.90;;;;;;5025102;28;19953;-61
2023/07/01 10:45:45;;;;;;;;;;;22.20;99.90;;;;;;5028810;28;20389;-61
2023/07/01 10:48:18;;;;;;;;;;;22.00;99.90;;;;;;5029488;28;19955;-62
2023/07/01 10:50:59;;;;;;;;;;;21.80;99.90;;;;;;5026251;28;19936;-62
2023/07/01 10:53:26;;;;;;;;;;;21.90;99.90;;;;;;5025164;28;20584;-61
2023/07/01 10:56:13;;;;;;;;;;;22.00;99.90;;;;;;5024811;28;19929;-61
2023/07/01 10:58:45;;;;;;;;;;;22.20;99.90;;;;;;5020025;28;19995;-62
2023/07/01 11:01:47;;;;;;;;;;;22.00;99.90;;;;;;5022664;28;20399;-61
2023/07/01 11:04:19;;;;;;;;;;;21.70;99.90;;;;;;5015790;28;19929;-61
2023/07/01 11:06:52;;;;;;;;;;;21.60;99.90;;;;;;5023290;28;19930;-61
2023/07/01 11:09:28;;;;;;;;;;;21.80;99.90;;;;;;5026550;28;19929;-62
2023/07/01 11:12:01;;;;;;;;;;;22.10;99.90;;;;;;5025214;28;19925;-61
2023/07/01 11:14:32;;;;;;;;;;;21.90;99.90;;;;;;5027988;28;20016;-61
2023/07/01 11:17:16;;;;;;;;;;;21.80;99.90;;;;;;5022451;28;19926;-62
2023/07/01 11:19:54;;;;;;;;;;;21.70;99.90;;;;;;5023461;28;20019;-61
2023/07/01 11:22:26;;;;;;;;;;;21.60;99.90;;;;;;5026263;28;19952;-61
2023/07/01 11:25:03;;;;;;;;;;;21.60;99.90;;;;;;5023365;28;19987;-61
2023/07/01 11:27:42;;;;;;;;;;;21.80;99.90;;;;;;5024172;28;19929;-62
2023/07/01 11:30:30;;;;;;;;;;;22.10;99.90;;;;;;5026173;28;19929;-61
2023/07/01 11:33:12;;;;;;;;;;;22.50;99.90;;;;;;5027030;28;19929;-61
2023/07/01 11:35:51;;;;;;;;;;;22.60;99.90;;;;;;5022313;28;19925;-61
2023/07/01 11:38:26;;;;;;;;;;;22.80;99.90;;;;;;5029813;28;19993;-61
2023/07/01 11:40:57;;;;;;;;;;;23.00;99.90;;;;;;5024166;28;19932;-62
2023/07/01 11:43:29;;;;;;;;;;;23.30;99.90;;;;;;5027979;28;19936;-61
2023/07/01 11:46:01;;;;;;;;;;;23.60;99.90;;;;;;5025014;28;19925;-61
2023/07/01 11:48:32;;;;;;;;;;;23.60;99.90;;;;;;5024056;28;19930;-61
2023/07/01 11:51:05;;;;;;;;;;;23.50;99.90;;;;;;5024872;28;19925;-61
2023/07/01 11:53:54;;;;;;;;;;;23.60;99.90;;;;;;5024145;28;19925;-61
2023/07/01 11:56:26;;;;;;;;;;;23.60;99.90;;;;;;5027451;28;19930;-61
2023/07/01 11:58:58;;;;;;;;;;;23.60;99.90;;;;;;5024500;28;19945;-61
2023/07/01 12:01:29;;;;;;;;;;;23.70;99.90;;;;;;5027071;28;19925;-62
2023/07/01 12:03:56;;;;;;;;;;;23.70;99.90;;;;;;5023521;28;20476;-61
2023/07/01 12:06:24;;;;;;;;;;;23.50;99.90;;;;;;5020065;28;19963;-61
2023/07/01 12:08:50;;;;;;;;;;;23.50;99.90;;;;;;5023876;28;19933;-61
2023/07/01 12:11:17;;;;;;;;;;;23.50;99.90;;;;;;5019885;28;19929;-62
2023/07/01 12:13:44;;;;;;;;;;;23.50;99.90;;;;;;5019130;28;20021;-62
2023/07/01 12:16:16;;;;;;;;;;;23.40;99.90;;;;;;5021873;28;19929;-62
2023/07/01 12:18:59;;;;;;;;;;;23.40;99.90;;;;;;5022661;28;19932;-62
2023/07/01 12:21:31;;;;;;;;;;;23.50;99.90;;;;;;5028479;28;19971;-61
2023/07/01 12:24:14;;;;;;;;;;;23.70;99.90;;;;;;5023109;28;20312;-61
2023/07/01 12:26:46;;;;;;;;;;;23.90;99.90;;;;;;5020423;28;19937;-61
2023/07/01 12:29:18;;;;;;;;;;;23.90;99.90;;;;;;5017497;28;20389;-62
2023/07/01 12:31:45;;;;;;;;;;;23.80;99.90;;;;;;5017291;28;20309;-62
2023/07/01 12:34:17;;;;;;;;;;;23.70;99.90;;;;;;5017157;28;19929;-62
2023/07/01 12:36:49;;;;;;;;;;;23.70;99.90;;;;;;5014357;28;19930;-61
2023/07/01 12:39:20;;;;;;;;;;;23.80;99.90;;;;;;5019311;28;19964;-61
2023/07/01 12:41:54;;;;;;;;;;;23.90;99.90;;;;;;5018638;28;20409;-61
2023/07/01 12:44:26;;;;;;;;;;;24.10;99.90;;;;;;5020734;28;20389;-62
2023/07/01 12:46:57;;;;;;;;;;;24.10;99.90;;;;;;5014675;28;19932;-61
2023/07/01 12:49:29;;;;;;;;;;;23.80;99.90;;;;;;5026253;28;19925;-61
2023/07/01 12:52:01;;;;;;;;;;;23.30;99.90;;;;;;5015323;28;19925;-61
2023/07/01 12:54:33;;;;;;;;;;;23.60;99.90;;;;;;5024708;28;19967;-62
2023/07/01 12:57:05;;;;;;;;;;;23.90;99.90;;;;;;5027710;28;19929;-61
2023/07/01 12:59:36;;;;;;;;;;;24.10;99.90;;;;;;5028171;28;19933;-62
2023/07/01 13:02:08;;;;;;;;;;;24.10;99.90;;;;;;5025706;28;20036;-62
2023/07/01 13:04:40;;;;;;;;;;;24.30;99.40;;;;;;5026833;28;20409;-62
2023/07/01 13:07:16;;;;;;;;;;;24.60;99.90;;;;;;5023049;28;19930;-62
2023/07/01 13:09:49;;;;;;;;;;;24.50;97.00;;;;;;5024614;28;19925;-62
2023/07/01 13:12:24;;;;;;;;;;;24.30;97.50;;;;;;5023328;28;19931;-62
2023/07/01 13:14:56;;;;;;;;;;;24.40;98.10;;;;;;5025970;28;19983;-62
2023/07/01 13:17:34;;;;;;;;;;;24.50;97.60;;;;;;5027617;28;20427;-61
2023/07/01 13:20:06;;;;;;;;;;;24.30;98.10;;;;;;5025428;28;19931;-62
2023/07/01 13:22:38;;;;;;;;;;;24.10;97.50;;;;;;5012307;28;19956;-61
2023/07/01 13:25:15;;;;;;;;;;;24.40;96.50;;;;;;5029244;28;20492;-61
2023/07/01 13:27:47;;;;;;;;;;;24.40;95.40;;;;;;5021154;28;19929;-61
2023/07/01 13:30:31;;;;;;;;;;;24.60;94.60;;;;;;5024197;28;19980;-61
2023/07/01 13:33:03;;;;;;;;;;;24.70;96.70;;;;;;5028087;28;20407;-62
2023/07/01 13:35:35;;;;;;;;;;;24.90;96.70;;;;;;5026042;28;20020;-61
2023/07/01 13:38:09;;;;;;;;;;;24.90;96.20;;;;;;5030334;28;20375;-61
2023/07/01 13:40:42;;;;;;;;;;;25.00;94.80;;;;;;5026818;28;20324;-61
2023/07/01 13:43:16;;;;;;;;;;;24.60;95.30;;;;;;5028382;28;19972;-61
2023/07/01 13:45:48;;;;;;;;;;;24.20;96.20;;;;;;5028772;28;19964;-62
2023/07/01 13:48:32;;;;;;;;;;;24.20;97.20;;;;;;5028655;28;19960;-62
2023/07/01 13:51:04;;;;;;;;;;;24.70;96.50;;;;;;5028013;28;19926;-61
2023/07/01 13:53:32;;;;;;;;;;;25.00;95.20;;;;;;5029005;28;20393;-62
2023/07/01 13:56:04;;;;;;;;;;;25.00;93.90;;;;;;5024677;28;19957;-61
2023/07/01 13:58:42;;;;;;;;;;;24.80;93.50;;;;;;5027263;28;19929;-61
2023/07/01 14:01:14;;;;;;;;;;;24.50;94.20;;;;;;5028111;28;20490;-62
2023/07/01 14:03:45;;;;;;;;;;;24.30;94.20;;;;;;5028104;28;19925;-61
2023/07/01 14:06:17;;;;;;;;;;;24.20;95.50;;;;;;5028690;28;19929;-61
2023/07/01 14:08:49;;;;;;;;;;;24.20;94.70;;;;;;5028020;28;19925;-61
2023/07/01 14:11:17;;;;;;;;;;;24.40;94.60;;;;;;5027781;28;19940;-62
2023/07/01 14:13:53;;;;;;;;;;;24.60;94.60;;;;;;5027786;28;19925;-61
2023/07/01 14:16:25;;;;;;;;;;;24.50;93.90;;;;;;5029050;28;19925;-61
2023/07/01 14:18:57;;;;;;;;;;;24.50;94.20;;;;;;5030589;28;19936;-61
2023/07/01 14:21:30;;;;;;;;;;;24.50;94.10;;;;;;5028155;28;20420;-62
2023/07/01 14:24:04;;;;;;;;;;;24.40;94.20;;;;;;5022790;28;19931;-61
2023/07/01 14:26:37;;;;;;;;;;;24.50;94.30;;;;;;5024663;28;19929;-61
2023/07/01 14:29:13;;;;;;;;;;;24.40;94.20;;;;;;5027416;28;20409;-61
2023/07/01 14:31:48;;;;;;;;;;;24.40;94.40;;;;;;5028536;28;19925;-61
2023/07/01 14:34:34;;;;;;;;;;;24.30;94.40;;;;;;5025339;28;19931;-62
2023/07/01 14:37:06;;;;;;;;;;;24.20;94.10;;;;;;5025459;28;19936;-61
2023/07/01 14:39:41;;;;;;;;;;;24.30;94.60;;;;;;5027074;28;19939;-61
2023/07/01 14:42:15;;;;;;;;;;;24.80;94.50;;;;;;5022933;28;20022;-61
2023/07/01 14:44:48;;;;;;;;;;;25.00;94.40;;;;;;5019041;28;20412;-61
2023/07/01 14:47:21;;;;;;;;;;;25.40;93.00;;;;;;5029338;28;19929;-61
2023/07/01 14:49:52;;;;;;;;;;;25.30;92.70;;;;;;5021349;28;19951;-61